createdAt,value
2019-04-24T10:26:13.238Z,39.80
2019-04-24T10:35:40.457Z,38.40
2019-04-24T10:38:43.125Z,37.00
2019-04-24T10:41:58.283Z,36.80
2019-04-24T10:56:34.434Z,33.80
2019-04-24T10:59:15.312Z,33.00
2019-04-24T11:05:45.018Z,31.40
2019-04-24T11:08:30.078Z,32.30
2019-04-24T11:14:36.428Z,30.60
2019-04-24T11:20:47.725Z,29.90
2019-04-24T11:23:27.610Z,29.60
2019-04-24T14:10:46.041Z,33.00
2019-04-24T14:13:05.007Z,32.40
2019-04-24T14:16:10.102Z,33.20
2019-04-24T14:19:07.551Z,32.60
2019-04-24T14:21:49.116Z,33.00
2019-04-24T14:24:39.446Z,33.20
2019-04-24T14:27:23.299Z,33.50
2019-04-24T14:30:15.662Z,33.50
2019-04-24T14:36:22.169Z,34.00
2019-04-24T14:38:48.150Z,34.20
2019-04-24T14:41:31.066Z,34.80
2019-04-24T14:44:59.483Z,34.80
2019-04-24T14:47:27.632Z,34.80
2019-04-24T14:50:26.325Z,34.70
2019-04-24T14:52:59.827Z,34.30
2019-04-24T14:55:54.993Z,34.50
2019-04-24T14:58:48.262Z,33.00
2019-04-24T15:01:22.040Z,32.60
2019-04-24T15:04:15.400Z,32.70
2019-04-24T15:09:52.680Z,32.90
2019-04-24T15:12:43.104Z,33.30
2019-04-24T15:15:24.978Z,32.90
2019-04-24T15:18:54.885Z,34.00
2019-04-24T15:21:09.003Z,33.20
2019-04-24T15:24:25.374Z,33.00
2019-04-24T15:29:35.001Z,33.50
2019-04-24T15:32:28.072Z,33.40
2019-04-24T15:35:20.568Z,34.30
2019-04-24T15:37:59.178Z,34.60
2019-04-24T15:41:11.946Z,35.10
2019-04-24T15:43:25.216Z,35.10
2019-04-24T15:46:15.531Z,35.80
2019-04-24T15:51:32.521Z,34.60
2019-04-24T15:54:13.381Z,34.60
2019-04-24T15:57:00.012Z,33.50
2019-04-24T16:00:13.458Z,33.40
2019-04-24T16:03:27.039Z,33.90
2019-04-24T16:05:24.694Z,34.20
2019-04-24T16:08:12.915Z,33.80
2019-04-24T16:10:59.186Z,34.00
2019-04-24T16:13:53.238Z,34.80
2019-04-24T16:17:02.123Z,35.10
2019-04-24T16:19:57.011Z,35.70
2019-04-24T16:22:38.506Z,35.80
2019-04-24T16:31:04.715Z,35.30
2019-04-24T16:33:56.794Z,35.80
2019-04-24T16:36:42.624Z,35.90
2019-04-24T16:39:21.549Z,36.10
2019-04-24T16:45:59.258Z,36.60
2019-04-24T16:48:29.640Z,36.80
2019-04-24T16:51:33.118Z,37.10
2019-04-24T16:56:50.841Z,37.40
2019-04-24T16:59:37.545Z,38.10
2019-04-24T17:02:21.266Z,38.70
2019-04-24T17:05:19.242Z,39.50
2019-04-24T17:11:06.098Z,41.90
2019-04-24T17:17:22.572Z,43.60
2019-04-24T17:20:08.097Z,44.20
2019-04-24T17:22:50.789Z,44.80
2019-04-24T17:25:40.069Z,45.50
2019-04-24T17:28:34.629Z,45.90
2019-04-24T17:31:10.839Z,46.40
2019-04-24T17:34:05.433Z,47.00
2019-04-24T17:36:26.549Z,47.60
2019-04-24T17:39:18.816Z,47.80
2019-04-24T17:42:12.548Z,48.40
2019-04-24T17:45:23.945Z,48.70
2019-04-24T17:48:07.283Z,49.10
2019-04-24T17:51:01.615Z,49.40
2019-04-24T17:53:46.626Z,49.80
2019-04-24T17:56:45.768Z,50.30
2019-04-24T17:58:53.408Z,50.60
2019-04-24T18:01:41.190Z,51.10
2019-04-24T18:04:27.391Z,51.30
2019-04-24T18:07:14.621Z,51.80
2019-04-24T18:10:00.688Z,52.10
2019-04-24T18:12:47.595Z,52.40
2019-04-24T18:15:34.176Z,52.60
2019-04-24T18:18:20.424Z,52.80
2019-04-24T18:21:06.943Z,53.10
2019-04-24T18:23:53.364Z,53.50
2019-04-24T18:26:45.180Z,53.70
2019-04-24T18:29:31.954Z,54.00
2019-04-24T18:32:21.130Z,54.30
2019-04-24T18:35:07.660Z,54.70
2019-04-24T18:38:05.685Z,54.80
2019-04-24T18:40:41.587Z,55.00
2019-04-24T18:43:28.085Z,55.50
2019-04-24T18:46:15.201Z,55.80
2019-04-24T18:49:03.103Z,56.10
2019-04-24T18:51:49.615Z,56.30
2019-04-24T18:54:36.179Z,56.60
2019-04-24T18:57:22.580Z,56.60
2019-04-24T19:00:10.134Z,57.00
2019-04-24T19:02:57.475Z,58.10
2019-04-24T19:05:43.867Z,58.30
2019-04-24T19:08:30.223Z,58.50
2019-04-24T19:11:17.318Z,58.50
2019-04-24T19:14:03.953Z,58.70
2019-04-24T19:16:50.144Z,59.00
2019-04-24T19:19:36.644Z,59.30
2019-04-24T19:22:22.380Z,59.50
2019-04-24T19:25:09.488Z,59.80
2019-04-24T19:27:55.837Z,60.00
2019-04-24T19:30:42.098Z,60.00
2019-04-24T19:33:28.483Z,60.60
2019-04-24T19:36:14.687Z,60.80
2019-04-24T19:39:01.996Z,61.30
2019-04-24T19:41:48.338Z,61.50
2019-04-24T19:44:34.781Z,62.00
2019-04-24T19:47:32.646Z,62.00
2019-04-24T19:50:09.379Z,62.30
2019-04-24T19:52:55.740Z,62.70
2019-04-24T19:55:42.142Z,62.90
2019-04-24T19:58:28.515Z,63.10
2019-04-24T20:01:15.613Z,63.40
2019-04-24T20:04:02.144Z,63.60
2019-04-24T20:06:48.498Z,63.80
2019-04-24T20:10:02.581Z,63.80
2019-04-24T20:12:48.903Z,64.20
2019-04-24T20:15:35.338Z,65.20
2019-04-24T20:18:22.974Z,65.30
2019-04-24T20:21:11.120Z,65.30
2019-04-24T20:23:38.860Z,65.60
2019-04-24T20:26:06.369Z,66.20
2019-04-24T20:28:33.916Z,66.50
2019-04-24T20:31:01.801Z,67.70
2019-04-24T20:33:29.457Z,67.40
2019-04-24T20:35:56.889Z,68.10
2019-04-24T20:38:24.959Z,68.10
2019-04-24T20:40:52.498Z,68.80
2019-04-24T20:43:20.034Z,68.70
2019-04-24T20:45:47.547Z,69.30
2019-04-24T20:48:16.593Z,69.70
2019-04-24T20:50:44.183Z,69.80
2019-04-24T20:53:12.339Z,70.00
2019-04-24T20:55:41.339Z,70.10
2019-04-24T20:58:09.240Z,70.50
2019-04-24T21:00:36.772Z,70.80
2019-04-24T21:03:04.319Z,71.00
2019-04-24T21:05:46.283Z,71.80
2019-04-24T21:08:20.966Z,71.90
2019-04-24T21:10:48.653Z,72.30
2019-04-24T21:13:16.159Z,72.50
2019-04-24T21:15:45.849Z,72.80
2019-04-24T21:18:12.944Z,73.20
2019-04-24T21:20:40.382Z,73.40
2019-04-24T21:23:07.909Z,73.30
2019-04-24T21:25:35.417Z,73.80
2019-04-24T21:28:02.895Z,73.30
2019-04-24T21:30:30.390Z,73.80
2019-04-24T21:32:57.876Z,74.90
2019-04-24T21:35:25.327Z,75.10
2019-04-24T21:37:52.742Z,75.40
2019-04-24T21:40:22.128Z,75.30
2019-04-24T21:42:49.591Z,75.50
2019-04-24T21:45:17.156Z,75.70
2019-04-24T21:47:44.632Z,76.70
2019-04-24T21:50:13.051Z,77.10
2019-04-24T21:52:42.146Z,77.50
2019-04-24T21:55:11.217Z,78.30
2019-04-24T21:57:57.068Z,78.50
2019-04-24T22:00:46.509Z,79.30
2019-04-24T22:03:21.873Z,79.90
2019-04-24T22:05:52.224Z,80.50
2019-04-24T22:08:20.268Z,81.60
2019-04-24T22:10:47.776Z,81.60
2019-04-24T22:13:15.404Z,82.40
2019-04-24T22:15:42.821Z,82.90
2019-04-24T22:18:12.133Z,82.80
2019-04-24T22:20:44.097Z,83.30
2019-04-24T22:23:35.851Z,83.30
2019-04-24T22:26:04.154Z,82.80
2019-04-24T22:28:32.142Z,83.50
2019-04-24T22:31:18.689Z,84.70
2019-04-24T22:33:53.719Z,85.80
2019-04-24T22:36:21.968Z,86.60
2019-04-24T22:39:08.932Z,86.70
2019-04-24T22:41:36.483Z,86.60
2019-04-24T22:44:04.106Z,87.80
2019-04-24T22:46:32.572Z,89.20
2019-04-24T22:49:01.434Z,90.20
2019-04-24T22:51:29.098Z,89.80
2019-04-24T22:53:56.677Z,89.90
2019-04-24T22:56:24.185Z,89.90
2019-04-24T22:58:51.608Z,89.70
2019-04-24T23:01:19.129Z,90.30
2019-04-24T23:03:46.738Z,90.70
2019-04-24T23:06:14.257Z,91.50
2019-04-24T23:08:42.416Z,92.00
2019-04-24T23:11:11.869Z,92.50
2019-04-24T23:13:40.005Z,92.30
2019-04-24T23:16:09.217Z,92.00
2019-04-24T23:18:37.464Z,92.00
2019-04-24T23:21:31.843Z,91.40
2019-04-24T23:24:22.539Z,91.40
2019-04-24T23:27:09.535Z,91.30
2019-04-24T23:29:53.908Z,91.30
2019-04-24T23:32:41.159Z,91.70
2019-04-24T23:35:09.172Z,92.10
2019-04-24T23:37:36.699Z,94.70
2019-04-24T23:40:06.479Z,97.00
2019-04-24T23:42:34.776Z,96.80
2019-04-24T23:45:02.514Z,96.80
2019-04-24T23:47:31.163Z,97.30
2019-04-24T23:49:59.324Z,97.30
2019-04-24T23:52:26.844Z,96.20
2019-04-24T23:55:13.810Z,95.70
2019-04-24T23:57:41.879Z,95.20
